Time;durP1;ratioP1;P1;durP2;ratioP2;P2;SDS_P1;SDS_P2;PMS_P1;PMS_P2;Temp;Humidity;BMP_temperature;BMP_pressure;BME280_temperature;BME280_humidity;BME280_pressure;Samples;Min_cycle;Max_cycle;Signal;HPM_P1;HPM_P2
2024/01/03 00:01:21;;;;;;;0.10;0.10;;;;;;;6.53;79.73;90215.00;5022299;28;20022;-55
2024/01/03 00:03:47;;;;;;;0.10;0.00;;;;;;;6.59;78.79;90216.16;5013972;28;20026;-55
2024/01/03 00:06:14;;;;;;;0.32;0.10;;;;;;;6.63;78.43;90214.25;5025366;28;20382;-54
2024/01/03 00:08:40;;;;;;;0.10;0.00;;;;;;;6.72;77.73;90211.25;5022576;28;20038;-55
2024/01/03 00:11:07;;;;;;;0.10;0.10;;;;;;;6.77;77.59;90209.00;5022841;28;20034;-55
2024/01/03 00:13:35;;;;;;;0.22;0.10;;;;;;;6.79;77.56;90219.84;5019834;28;20044;-55
2024/01/03 00:16:04;;;;;;;0.20;0.10;;;;;;;6.79;77.84;90221.75;5025169;28;20333;-55
2024/01/03 00:18:35;;;;;;;0.47;0.10;;;;;;;6.74;78.28;90233.41;5024119;28;20033;-55
2024/01/03 00:21:01;;;;;;;0.20;0.17;;;;;;;6.67;77.72;90236.00;5015975;28;20029;-54
2024/01/03 00:23:35;;;;;;;0.40;0.20;;;;;;;6.58;78.29;90239.03;5025456;28;20095;-54
2024/01/03 00:26:00;;;;;;;0.40;0.10;;;;;;;6.53;78.16;90230.75;5032163;28;20025;-54
2024/01/03 00:28:26;;;;;;;0.30;0.10;;;;;;;6.48;77.95;90229.28;5014872;28;20364;-55
2024/01/03 00:30:51;;;;;;;0.28;0.20;;;;;;;6.45;78.59;90248.41;5019350;28;20445;-55
2024/01/03 00:33:17;;;;;;;0.30;0.08;;;;;;;6.45;78.94;90256.28;5025704;28;20044;-55
2024/01/03 00:35:43;;;;;;;0.10;0.00;;;;;;;6.41;78.87;90274.69;5009377;28;20313;-55
2024/01/03 00:38:09;;;;;;;0.20;0.10;;;;;;;6.34;79.19;90279.91;5018904;28;20037;-55
2024/01/03 00:40:36;;;;;;;0.38;0.10;;;;;;;6.25;79.61;90274.28;5006519;28;20034;-55
2024/01/03 00:43:02;;;;;;;1.20;0.10;;;;;;;6.21;79.54;90268.28;5029518;28;20044;-54
2024/01/03 00:45:27;;;;;;;0.00;0.00;;;;;;;6.20;79.66;90282.53;5023421;28;20449;-55
2024/01/03 00:47:53;;;;;;;0.03;0.03;;;;;;;6.17;79.47;90286.66;5012298;28;20455;-55
2024/01/03 00:50:19;;;;;;;0.30;0.10;;;;;;;6.15;79.60;90278.41;5014299;28;20499;-55
2024/01/03 00:52:44;;;;;;;0.22;0.13;;;;;;;6.11;79.75;90293.41;5028582;28;20040;-54
2024/01/03 00:55:11;;;;;;;0.30;0.20;;;;;;;6.04;79.55;90269.00;5015059;28;20638;-55
2024/01/03 00:57:37;;;;;;;0.40;0.13;;;;;;;5.99;79.92;90266.72;5006956;28;20117;-55
2024/01/03 01:00:04;;;;;;;0.38;0.20;;;;;;;5.99;78.83;90277.22;5016272;28;20571;-56
2024/01/03 01:02:29;;;;;;;0.17;0.13;;;;;;;6.03;78.56;90259.63;5027664;28;20372;-55
2024/01/03 01:04:55;;;;;;;0.17;0.10;;;;;;;6.09;78.41;90290.38;5012452;28;20088;-56
2024/01/03 01:07:21;;;;;;;0.85;0.10;;;;;;;6.17;78.19;90281.41;5021012;28;20044;-55
2024/01/03 01:09:46;;;;;;;0.45;0.20;;;;;;;6.23;78.81;90281.78;5014231;28;20025;-54
2024/01/03 01:12:12;;;;;;;0.20;0.15;;;;;;;6.24;77.82;90280.66;5018946;28;20037;-54
2024/01/03 01:14:37;;;;;;;0.40;0.10;;;;;;;6.25;77.92;90273.53;5012766;28;20487;-56
2024/01/03 01:17:03;;;;;;;0.10;0.10;;;;;;;6.27;77.22;90272.03;5020795;28;20040;-55
2024/01/03 01:19:29;;;;;;;0.40;0.20;;;;;;;6.29;77.38;90267.16;5013845;28;20068;-55
2024/01/03 01:21:54;;;;;;;0.13;0.10;;;;;;;6.31;77.15;90272.03;5017118;28;20113;-55
2024/01/03 01:24:20;;;;;;;0.03;0.00;;;;;;;6.38;76.09;90267.56;5024337;28;20028;-55
2024/01/03 01:26:45;;;;;;;0.13;0.10;;;;;;;6.47;75.57;90272.44;5016888;28;20499;-57
2024/01/03 01:29:11;;;;;;;0.10;0.10;;;;;;;6.54;75.52;90277.69;5010825;28;20041;-55
2024/01/03 01:31:37;;;;;;;0.20;0.10;;;;;;;6.60;74.23;90272.81;5018074;28;20116;-54
2024/01/03 01:34:02;;;;;;;0.00;0.00;;;;;;;6.72;74.06;90282.94;5020268;28;20487;-56
2024/01/03 01:36:28;;;;;;;0.10;0.03;;;;;;;6.80;74.20;90281.03;5017872;28;20029;-55
2024/01/03 01:38:53;;;;;;;0.30;0.10;;;;;;;6.73;74.45;90281.06;5017050;28;20030;-56
2024/01/03 01:41:19;;;;;;;0.43;0.10;;;;;;;6.70;74.71;90287.81;5023023;28;20044;-55
2024/01/03 01:43:44;;;;;;;1.23;0.10;;;;;;;6.60;74.46;90285.94;5020470;28;20108;-56
2024/01/03 01:46:10;;;;;;;0.47;0.30;;;;;;;6.55;75.16;90278.44;5020683;28;20034;-55
2024/01/03 01:48:36;;;;;;;0.00;0.00;;;;;;;6.53;74.74;90285.91;5016612;28;20092;-55
2024/01/03 01:51:02;;;;;;;0.17;0.10;;;;;;;6.52;74.30;90281.81;5008913;28;20062;-55
2024/01/03 01:53:28;;;;;;;0.22;0.08;;;;;;;6.56;74.62;90295.72;5016326;28;20501;-55
2024/01/03 01:55:54;;;;;;;0.10;0.10;;;;;;;6.57;73.79;90289.31;5012010;28;20039;-55
2024/01/03 01:58:22;;;;;;;0.25;0.20;;;;;;;6.62;74.27;90288.94;5026225;28;20067;-55
2024/01/03 02:00:48;;;;;;;0.20;0.08;;;;;;;6.63;73.95;90280.69;4995157;28;20079;-55
2024/01/03 02:03:13;;;;;;;0.45;0.20;;;;;;;6.64;74.18;90270.91;5029090;28;20040;-55
2024/01/03 02:05:39;;;;;;;1.55;0.17;;;;;;;6.62;74.56;90284.44;5016388;28;20026;-58
2024/01/03 02:08:08;;;;;;;0.20;0.10;;;;;;;6.63;74.43;90285.94;5016231;28;20081;-54
2024/01/03 02:10:35;;;;;;;0.17;0.10;;;;;;;6.60;74.68;90289.31;5010103;28;20056;-55
2024/01/03 02:13:00;;;;;;;0.05;0.05;;;;;;;6.58;75.24;90290.81;5020406;28;20105;-55
2024/01/03 02:15:27;;;;;;;0.00;0.00;;;;;;;6.55;74.50;90265.28;5007173;28;20113;-56
2024/01/03 02:17:55;;;;;;;0.00;0.00;;;;;;;6.54;74.61;90275.06;5019156;28;20017;-54
2024/01/03 02:20:22;;;;;;;0.03;0.00;;;;;;;6.55;74.28;90273.91;5014238;28;20108;-55
2024/01/03 02:22:48;;;;;;;0.00;0.00;;;;;;;6.63;74.37;90272.06;5031204;28;20037;-55
2024/01/03 02:25:14;;;;;;;0.00;0.00;;;;;;;6.66;73.62;90279.19;5014507;28;20022;-56
2024/01/03 02:27:40;;;;;;;0.10;0.10;;;;;;;6.72;72.97;90280.31;5015909;28;20026;-55
2024/01/03 02:30:06;;;;;;;0.03;0.03;;;;;;;6.81;72.06;90290.44;5010681;28;20128;-54
2024/01/03 02:32:32;;;;;;;0.50;0.10;;;;;;;6.92;71.49;90272.03;5022743;28;20029;-55
2024/01/03 02:34:57;;;;;;;0.15;0.10;;;;;;;6.95;71.18;90263.38;5015003;28;20132;-55
2024/01/03 02:37:24;;;;;;;0.10;0.00;;;;;;;7.03;70.04;90255.09;5014098;28;20035;-55
2024/01/03 02:39:50;;;;;;;0.00;0.00;;;;;;;7.06;69.96;90261.50;5013036;28;20029;-54
2024/01/03 02:42:16;;;;;;;0.22;0.00;;;;;;;7.10;69.68;90255.13;5029457;28;20018;-54
2024/01/03 02:44:41;;;;;;;0.00;0.00;;;;;;;7.13;69.94;90255.47;5014361;28;20034;-55
2024/01/03 02:47:07;;;;;;;1.65;0.10;;;;;;;7.19;68.35;90267.88;5014232;28;20033;-55
2024/01/03 02:49:32;;;;;;;0.00;0.00;;;;;;;7.27;67.51;90269.31;5009871;28;20494;-55
2024/01/03 02:52:00;;;;;;;0.05;0.00;;;;;;;7.31;68.16;90272.72;5027111;28;20064;-54
2024/01/03 02:54:26;;;;;;;0.10;0.05;;;;;;;7.38;66.93;90268.56;5030032;28;20028;-54
2024/01/03 02:56:53;;;;;;;0.00;0.00;;;;;;;7.38;67.79;90284.34;5023670;28;20109;-55
2024/01/03 02:59:19;;;;;;;0.13;0.00;;;;;;;7.37;67.91;90280.19;5015503;28;20111;-56
2024/01/03 03:01:45;;;;;;;0.40;0.08;;;;;;;7.35;68.60;90274.59;5016915;28;20053;-55
2024/01/03 03:04:11;;;;;;;0.00;0.00;;;;;;;7.33;67.57;90270.44;5026520;28;20034;-55
2024/01/03 03:06:36;;;;;;;0.80;0.05;;;;;;;7.29;68.05;90266.34;5024087;28;20035;-54
2024/01/03 03:09:02;;;;;;;0.10;0.10;;;;;;;7.24;69.07;90253.56;5014638;28;20457;-55
2024/01/03 03:11:28;;;;;;;0.00;0.00;;;;;;;7.27;68.84;90264.06;5022268;28;20121;-54
2024/01/03 03:13:53;;;;;;;0.60;0.00;;;;;;;7.27;69.53;90273.84;5019273;28;20109;-56
2024/01/03 03:16:19;;;;;;;0.15;0.10;;;;;;;7.25;69.13;90273.47;5022195;28;20068;-55
2024/01/03 03:18:45;;;;;;;1.42;0.20;;;;;;;7.28;68.42;90260.34;5022340;28;20026;-54
2024/01/03 03:21:11;;;;;;;0.52;0.10;;;;;;;7.35;67.31;90266.69;5012851;28;20033;-55
2024/01/03 03:23:36;;;;;;;0.08;0.00;;;;;;;7.38;67.54;90271.94;5022287;28;20445;-54
2024/01/03 03:26:05;;;;;;;0.00;0.00;;;;;;;7.41;66.98;90281.69;5014512;28;20122;-55
2024/01/03 03:28:30;;;;;;;0.20;0.10;;;;;;;7.40;66.64;90256.53;5017455;28;20508;-55
2024/01/03 03:30:56;;;;;;;0.00;0.00;;;;;;;7.38;67.40;90266.69;5017689;28;20030;-56
2024/01/03 03:33:21;;;;;;;0.20;0.05;;;;;;;7.32;66.95;90268.19;5011656;28;20036;-55
2024/01/03 03:35:47;;;;;;;0.00;0.00;;;;;;;7.30;66.57;90259.94;5018624;28;20036;-54
2024/01/03 03:38:13;;;;;;;0.10;0.00;;;;;;;7.30;66.41;90249.41;5019643;28;20402;-56
2024/01/03 03:40:38;;;;;;;0.10;0.10;;;;;;;7.33;66.65;90264.44;5015965;28;20034;-55
2024/01/03 03:43:04;;;;;;;0.00;0.00;;;;;;;7.37;66.07;90253.91;5014395;28;20033;-54
2024/01/03 03:45:31;;;;;;;0.32;0.10;;;;;;;7.40;66.46;90246.03;5029747;28;20474;-54
2024/01/03 03:47:57;;;;;;;0.30;0.10;;;;;;;7.40;66.39;90248.66;5015126;28;20029;-56
2024/01/03 03:50:22;;;;;;;0.20;0.00;;;;;;;7.42;66.61;90243.00;5009862;28;20034;-54
2024/01/03 03:52:48;;;;;;;0.10;0.10;;;;;;;7.48;65.90;90247.47;5015316;28;20091;-55
2024/01/03 03:55:13;;;;;;;0.00;0.00;;;;;;;7.49;66.43;90258.75;5020226;28;20030;-55
2024/01/03 03:57:39;;;;;;;1.50;0.08;;;;;;;7.48;66.17;90259.88;5019738;28;20383;-56
2024/01/03 04:00:05;;;;;;;0.00;0.00;;;;;;;7.49;66.37;90250.84;5012753;28;20188;-54
2024/01/03 04:02:37;;;;;;;2.70;1.15;;;;;;;7.55;67.00;90259.84;5009105;28;20121;-60
2024/01/03 04:05:03;;;;;;;3.00;1.50;;;;;;;7.70;67.25;90277.09;5026234;28;20108;-54
2024/01/03 04:07:31;;;;;;;0.00;0.00;;;;;;;7.49;68.72;90287.69;5029785;28;20030;-53
2024/01/03 04:09:57;;;;;;;0.47;0.10;;;;;;;7.35;70.18;90288.47;5015870;28;20022;-53
2024/01/03 04:12:22;;;;;;;23.70;11.45;;;;;;;7.25;71.37;90292.66;5021964;28;20045;-52
2024/01/03 04:14:48;;;;;;;0.30;0.20;;;;;;;7.14;71.08;90299.06;5013683;28;20051;-55
2024/01/03 04:17:13;;;;;;;1.95;0.47;;;;;;;7.02;72.75;90300.94;5014243;28;20040;-55
2024/01/03 04:19:39;;;;;;;0.25;0.10;;;;;;;6.93;73.55;90297.19;5021632;28;20426;-54
2024/01/03 04:22:05;;;;;;;1.90;0.00;;;;;;;6.82;74.18;90281.44;5021949;28;20026;-54
2024/01/03 04:24:31;;;;;;;0.35;0.00;;;;;;;6.75;74.67;90266.41;5030270;28;20034;-54
2024/01/03 04:26:56;;;;;;;0.10;0.10;;;;;;;6.70;74.65;90245.78;5013500;28;20556;-56
2024/01/03 04:29:22;;;;;;;0.10;0.08;;;;;;;6.63;74.58;90274.69;5022320;28;20538;-55
2024/01/03 04:31:47;;;;;;;0.47;0.10;;;;;;;6.63;74.97;90287.81;5033193;28;20508;-54
2024/01/03 04:34:14;;;;;;;2.33;1.15;;;;;;;6.55;75.72;90284.44;5033172;28;20048;-53
2024/01/03 04:36:39;;;;;;;24.33;13.95;;;;;;;6.59;75.65;90277.31;5024660;28;20029;-51
2024/01/03 04:39:05;;;;;;;24.17;8.93;;;;;;;6.59;76.23;90294.97;5008178;28;20495;-55
2024/01/03 04:41:30;;;;;;;1.85;0.50;;;;;;;6.51;76.92;90309.94;5004978;28;20065;-55
2024/01/03 04:43:56;;;;;;;0.65;0.10;;;;;;;6.44;78.02;90317.06;5002796;28;20038;-55
2024/01/03 04:46:22;;;;;;;0.28;0.20;;;;;;;6.28;78.68;90314.78;5008652;28;20034;-55
2024/01/03 04:48:47;;;;;;;0.13;0.10;;;;;;;6.14;79.06;90300.53;5012525;28;20041;-56
2024/01/03 04:51:15;;;;;;;0.55;0.20;;;;;;;6.04;79.86;90316.25;5012666;28;20034;-55
2024/01/03 04:53:40;;;;;;;0.60;0.20;;;;;;;5.94;80.12;90315.84;5017740;28;20100;-56
2024/01/03 04:56:06;;;;;;;0.10;0.10;;;;;;;5.90;79.74;90311.69;5020389;28;20049;-55
2024/01/03 04:58:32;;;;;;;0.10;0.10;;;;;;;5.89;80.17;90329.28;5019814;28;20108;-55
2024/01/03 05:00:57;;;;;;;0.10;0.10;;;;;;;5.93;80.43;90355.59;5020166;28;20025;-56
2024/01/03 05:03:23;;;;;;;0.20;0.15;;;;;;;5.89;81.15;90354.78;5031186;28;20479;-55
2024/01/03 05:05:48;;;;;;;1.27;0.13;;;;;;;5.85;81.31;90343.53;5023473;28;20026;-55
2024/01/03 05:08:15;;;;;;;0.35;0.10;;;;;;;5.83;81.57;90322.13;5030196;28;20026;-57
2024/01/03 05:10:41;;;;;;;80.80;43.33;;;;;;;5.94;81.23;90328.22;5013287;28;20029;-55
2024/01/03 05:13:07;;;;;;;3.10;1.10;;;;;;;5.99;80.43;90316.59;5012240;28;20044;-55
2024/01/03 05:15:32;;;;;;;0.38;0.20;;;;;;;5.93;80.87;90332.72;5019608;28;20033;-56
2024/01/03 05:17:58;;;;;;;0.50;0.20;;;;;;;5.85;80.28;90333.03;5011867;28;20498;-55
2024/01/03 05:20:23;;;;;;;0.10;0.10;;;;;;;5.76;80.78;90317.63;5014906;28;20048;-55
2024/01/03 05:22:49;;;;;;;0.10;0.10;;;;;;;5.77;80.39;90313.88;5023713;28;20108;-55
2024/01/03 05:25:15;;;;;;;0.88;0.43;;;;;;;5.72;79.57;90335.97;5023043;28;20021;-58
2024/01/03 05:27:40;;;;;;;0.95;0.30;;;;;;;5.66;79.89;90297.38;5031483;28;20041;-56
2024/01/03 05:30:06;;;;;;;10.52;4.63;;;;;;;5.66;79.45;90285.00;5013801;28;20049;-52
2024/01/03 05:32:32;;;;;;;8.30;3.75;;;;;;;5.62;80.05;90278.97;5009826;28;20030;-55
2024/01/03 05:34:57;;;;;;;1.52;0.50;;;;;;;5.56;79.71;90287.56;5026137;28;20037;-55
2024/01/03 05:37:23;;;;;;;1.05;0.22;;;;;;;5.56;79.77;90301.41;5023548;28;20026;-55
2024/01/03 05:39:48;;;;;;;0.93;0.30;;;;;;;5.54;80.27;90329.16;5016621;28;20129;-54
2024/01/03 05:42:14;;;;;;;0.30;0.20;;;;;;;5.51;80.77;90325.41;5020233;28;20045;-55
2024/01/03 05:44:40;;;;;;;0.55;0.30;;;;;;;5.51;80.99;90359.47;5015353;28;20026;-54
2024/01/03 05:47:05;;;;;;;0.28;0.10;;;;;;;5.44;81.91;90331.34;5021768;28;20546;-55
2024/01/03 05:49:31;;;;;;;78.88;37.05;;;;;;;5.46;81.43;90323.13;5009941;28;20026;-55
2024/01/03 05:51:58;;;;;;;1.02;0.60;;;;;;;5.43;81.41;90305.50;5012169;28;20641;-55
2024/01/03 05:54:24;;;;;;;0.65;0.30;;;;;;;5.39;80.90;90309.97;5020942;28;20045;-55
2024/01/03 05:56:50;;;;;;;0.60;0.20;;;;;;;5.32;81.03;90312.56;5027050;28;20018;-56
2024/01/03 05:59:15;;;;;;;1.63;0.30;;;;;;;5.27;80.95;90316.28;5017432;28;20092;-56
2024/01/03 06:01:41;;;;;;;0.70;0.40;;;;;;;5.24;81.24;90314.41;5013217;28;20479;-54
2024/01/03 06:04:07;;;;;;;0.90;0.45;;;;;;;5.22;80.97;90324.47;5026662;28;20041;-55
2024/01/03 06:06:32;;;;;;;0.80;0.30;;;;;;;5.26;80.87;90317.38;5003745;28;20112;-55
2024/01/03 06:08:58;;;;;;;2.38;0.32;;;;;;;5.27;80.72;90313.66;5016210;28;20098;-56
2024/01/03 06:11:23;;;;;;;2.70;0.65;;;;;;;5.27;80.04;90324.16;5020121;28;20172;-55
2024/01/03 06:13:51;;;;;;;0.30;0.20;;;;;;;5.35;79.90;90325.66;5003824;28;20417;-55
2024/01/03 06:16:17;;;;;;;0.60;0.30;;;;;;;5.35;79.93;90325.66;5014106;28;20121;-55
2024/01/03 06:18:42;;;;;;;0.13;0.13;;;;;;;5.39;80.02;90344.81;5026976;28;20115;-55
2024/01/03 06:21:11;;;;;;;0.10;0.10;;;;;;;5.41;80.74;90349.69;5011108;28;20034;-55
2024/01/03 06:23:38;;;;;;;0.38;0.10;;;;;;;5.42;81.17;90353.81;5029945;28;20041;-56
2024/01/03 06:26:05;;;;;;;0.10;0.10;;;;;;;5.38;81.48;90342.53;5025137;28;20399;-55
2024/01/03 06:28:31;;;;;;;0.43;0.20;;;;;;;5.37;80.82;90370.63;5024949;28;20030;-55
2024/01/03 06:30:57;;;;;;;0.10;0.10;;;;;;;5.34;81.03;90379.22;5016409;28;20038;-55
2024/01/03 06:33:22;;;;;;;1.00;0.15;;;;;;;5.33;81.02;90372.50;5022790;28;20026;-54
2024/01/03 06:35:48;;;;;;;0.20;0.13;;;;;;;5.35;79.96;90390.47;5030720;28;20033;-55
2024/01/03 06:38:13;;;;;;;0.40;0.13;;;;;;;5.40;80.30;90390.88;5021368;28;20041;-55
2024/01/03 06:40:39;;;;;;;0.15;0.13;;;;;;;5.43;79.72;90386.78;5014385;28;20041;-56
2024/01/03 06:43:06;;;;;;;0.50;0.20;;;;;;;5.46;79.36;90386.78;5023043;28;20045;-54
2024/01/03 06:45:31;;;;;;;0.52;0.10;;;;;;;5.50;79.23;90374.47;5012899;28;20380;-55
2024/01/03 06:47:57;;;;;;;0.45;0.20;;;;;;;5.52;78.72;90387.22;5016013;28;20029;-54
2024/01/03 06:50:22;;;;;;;0.98;0.22;;;;;;;5.55;78.85;90381.22;5016572;28;20034;-55
2024/01/03 06:52:48;;;;;;;0.20;0.20;;;;;;;5.59;78.92;90402.97;5019085;28;20073;-55
2024/01/03 06:55:13;;;;;;;0.50;0.30;;;;;;;5.61;78.08;90416.47;5009191;28;20033;-55
2024/01/03 06:57:41;;;;;;;0.30;0.20;;;;;;;5.67;78.50;90430.00;5011709;28;20042;-55
2024/01/03 07:00:07;;;;;;;0.40;0.20;;;;;;;5.65;79.47;90442.72;5013039;28;20064;-54
2024/01/03 07:02:32;;;;;;;0.90;0.38;;;;;;;5.54;80.85;90442.66;5019131;28;20029;-55
2024/01/03 07:04:58;;;;;;;1.75;0.65;;;;;;;5.47;81.29;90447.84;5010875;28;20030;-56
2024/01/03 07:07:23;;;;;;;2.17;0.68;;;;;;;5.41;80.63;90436.19;5019023;28;20083;-55
2024/01/03 07:09:49;;;;;;;1.23;0.57;;;;;;;5.44;80.01;90438.09;5012836;28;20095;-55
2024/01/03 07:12:15;;;;;;;0.45;0.30;;;;;;;5.41;79.86;90441.44;5010649;28;20116;-54
2024/01/03 07:14:40;;;;;;;0.57;0.25;;;;;;;5.44;78.85;90433.59;5013220;28;20364;-55
2024/01/03 07:17:06;;;;;;;0.50;0.30;;;;;;;5.48;78.58;90423.16;5022315;28;20547;-54
2024/01/03 07:19:31;;;;;;;1.45;0.77;;;;;;;5.43;78.38;90428.72;5016843;28;20538;-55
2024/01/03 07:21:57;;;;;;;0.77;0.30;;;;;;;5.43;78.10;90421.63;5011980;28;20018;-54
2024/01/03 07:24:23;;;;;;;0.45;0.20;;;;;;;5.42;77.32;90432.47;5018896;28;20503;-54
2024/01/03 07:26:49;;;;;;;0.40;0.20;;;;;;;5.46;77.65;90431.38;5018675;28;20037;-55
2024/01/03 07:29:14;;;;;;;0.77;0.30;;;;;;;5.47;77.50;90432.88;5010712;28;20180;-54
2024/01/03 07:31:40;;;;;;;0.20;0.20;;;;;;;5.54;77.18;90440.06;5011370;28;20475;-55
2024/01/03 07:34:06;;;;;;;2.92;0.30;;;;;;;5.62;75.91;90435.59;5018844;28;20045;-55
2024/01/03 07:36:32;;;;;;;0.63;0.20;;;;;;;5.77;74.81;90445.03;5019571;28;20113;-55
2024/01/03 07:39:00;;;;;;;0.82;0.40;;;;;;;5.86;74.49;90434.97;5021330;28;20168;-55
2024/01/03 07:41:25;;;;;;;0.98;0.20;;;;;;;5.90;73.92;90438.38;5021631;28;20025;-55
2024/01/03 07:43:51;;;;;;;2.03;0.43;;;;;;;5.91;73.77;90433.88;5024596;28;20029;-56
2024/01/03 07:46:17;;;;;;;1.88;0.55;;;;;;;5.97;73.26;90442.94;5027224;28;20021;-54
2024/01/03 07:48:43;;;;;;;0.90;0.30;;;;;;;6.27;72.22;90439.31;5022280;28;20491;-54
2024/01/03 07:51:10;;;;;;;1.75;0.40;;;;;;;7.11;69.72;90447.78;5022006;28;20121;-54
2024/01/03 07:53:37;;;;;;;1.08;0.35;;;;;;;7.16;67.81;90441.38;5013987;28;20121;-56
2024/01/03 07:56:05;;;;;;;1.80;0.52;;;;;;;6.93;67.36;90444.38;5032582;28;20459;-55
2024/01/03 07:58:31;;;;;;;0.50;0.40;;;;;;;6.80;67.67;90441.34;5015763;28;20041;-55
2024/01/03 08:00:56;;;;;;;1.25;0.30;;;;;;;6.64;67.22;90446.94;5014016;28;20017;-54
2024/01/03 08:03:22;;;;;;;0.80;0.45;;;;;;;6.58;68.49;90449.16;5029558;28;20510;-56
2024/01/03 08:05:48;;;;;;;2.70;0.57;;;;;;;6.57;68.41;90450.31;5025114;28;20037;-55
2024/01/03 08:08:13;;;;;;;1.45;0.50;;;;;;;6.49;68.64;90446.13;5020129;28;20124;-55
2024/01/03 08:10:39;;;;;;;2.25;1.15;;;;;;;6.50;68.71;90449.50;5020230;28;20105;-54
2024/01/03 08:13:04;;;;;;;30.60;11.63;;;;;;;6.48;67.92;90443.91;5025877;28;20029;-56
2024/01/03 08:15:30;;;;;;;3.65;1.52;;;;;;;6.50;67.72;90460.03;5016958;28;20406;-55
2024/01/03 08:17:55;;;;;;;1.65;0.60;;;;;;;6.47;67.56;90463.38;5025333;28;20431;-55
2024/01/03 08:20:21;;;;;;;0.82;0.50;;;;;;;6.48;67.51;90459.66;5015897;28;20159;-56
2024/01/03 08:22:46;;;;;;;0.52;0.30;;;;;;;6.53;66.75;90452.19;5013247;28;20112;-54
2024/01/03 08:25:12;;;;;;;2.15;0.50;;;;;;;6.57;66.33;90455.56;5021738;28;20206;-54
2024/01/03 08:27:39;;;;;;;0.90;0.38;;;;;;;6.63;65.46;90455.94;5021519;28;20038;-55
2024/01/03 08:30:06;;;;;;;1.02;0.32;;;;;;;6.74;66.07;90442.81;5013379;28;20388;-54
2024/01/03 08:32:32;;;;;;;0.30;0.20;;;;;;;6.83;64.35;90456.38;5011146;28;20022;-54
2024/01/03 08:34:59;;;;;;;1.67;0.20;;;;;;;6.98;62.65;90451.88;5021671;28;20036;-55
2024/01/03 08:37:24;;;;;;;0.43;0.20;;;;;;;7.38;62.67;90434.28;5013354;28;20033;-54
2024/01/03 08:39:50;;;;;;;1.02;0.25;;;;;;;7.78;60.51;90435.72;5018783;28;20034;-55
2024/01/03 08:42:15;;;;;;;0.40;0.30;;;;;;;7.69;60.80;90436.09;5013457;28;20065;-55
2024/01/03 08:44:41;;;;;;;0.82;0.20;;;;;;;7.54;61.40;90437.25;5029411;28;20025;-55
2024/01/03 08:47:07;;;;;;;2.08;0.25;;;;;;;7.39;60.88;90446.28;5026061;28;20425;-55
2024/01/03 08:49:33;;;;;;;0.60;0.20;;;;;;;7.36;61.25;90429.38;5016939;28;20483;-55
2024/01/03 08:51:59;;;;;;;0.77;0.17;;;;;;;7.31;61.00;90429.75;5012288;28;20038;-55
2024/01/03 08:54:24;;;;;;;1.90;0.38;;;;;;;7.31;61.83;90435.78;5013141;28;20117;-55
2024/01/03 08:56:50;;;;;;;1.67;0.30;;;;;;;7.33;61.10;90432.75;5023013;28;20034;-55
2024/01/03 08:59:16;;;;;;;2.53;0.35;;;;;;;7.37;60.90;90436.16;5024774;28;20117;-55
2024/01/03 09:01:41;;;;;;;2.20;0.20;;;;;;;7.38;60.88;90439.53;5015209;28;20033;-54
2024/01/03 09:04:07;;;;;;;1.95;0.30;;;;;;;7.35;60.76;90433.13;5025466;28;20033;-55
2024/01/03 09:06:35;;;;;;;1.08;0.20;;;;;;;7.42;61.04;90445.53;5020372;28;20159;-55
2024/01/03 09:09:01;;;;;;;1.02;0.20;;;;;;;7.42;60.44;90437.63;5004934;28;20030;-55
2024/01/03 09:11:28;;;;;;;1.27;0.20;;;;;;;7.46;60.54;90449.69;5015147;28;20030;-55
2024/01/03 09:13:54;;;;;;;1.20;0.30;;;;;;;7.46;60.68;90433.91;5028986;28;20041;-55
2024/01/03 09:16:22;;;;;;;2.15;0.47;;;;;;;7.49;59.58;90445.53;5025506;28;20037;-54
2024/01/03 09:18:48;;;;;;;1.15;0.30;;;;;;;7.51;58.45;90430.13;5030217;28;20459;-55
2024/01/03 09:21:14;;;;;;;0.35;0.20;;;;;;;7.51;60.08;90446.66;5021835;28;20017;-54
2024/01/03 09:23:40;;;;;;;0.55;0.20;;;;;;;7.83;59.19;90439.88;5031631;28;20433;-55
2024/01/03 09:26:06;;;;;;;0.90;0.28;;;;;;;8.36;57.13;90438.94;5021066;28;20105;-55
2024/01/03 09:28:34;;;;;;;1.23;0.20;;;;;;;9.49;55.07;90441.34;5012472;28;20394;-55
2024/01/03 09:31:01;;;;;;;2.22;0.38;;;;;;;10.42;52.46;90437.88;5021321;28;20017;-55
2024/01/03 09:33:26;;;;;;;1.38;0.20;;;;;;;10.84;50.88;90435.84;5032167;28;20033;-55
2024/01/03 09:35:52;;;;;;;1.88;0.52;;;;;;;10.86;50.99;90444.13;5013175;28;20561;-54
2024/01/03 09:38:18;;;;;;;2.35;0.45;;;;;;;10.45;51.34;90429.13;5012275;28;20033;-55
2024/01/03 09:40:43;;;;;;;1.95;0.50;;;;;;;10.69;52.71;90435.28;5015453;28;20403;-55
2024/01/03 09:43:12;;;;;;;3.33;0.68;;;;;;;11.17;51.90;90437.66;5019469;28;20030;-55
2024/01/03 09:45:38;;;;;;;0.70;0.30;;;;;;;10.88;50.88;90433.91;5011866;28;20112;-57
2024/01/03 09:48:05;;;;;;;3.13;0.73;;;;;;;10.48;51.19;90433.63;5020191;28;20056;-55
2024/01/03 09:50:32;;;;;;;2.50;0.70;;;;;;;10.41;52.22;90420.47;5015254;28;20025;-55
2024/01/03 09:52:58;;;;;;;4.85;2.10;;;;;;;10.23;51.57;90424.06;5015358;28;20034;-55
2024/01/03 09:55:24;;;;;;;1.80;0.73;;;;;;;10.06;52.63;90419.72;5015586;28;20518;-55
2024/01/03 09:57:50;;;;;;;2.92;0.68;;;;;;;9.95;52.91;90430.38;5017857;28;20304;-55
2024/01/03 10:00:16;;;;;;;3.05;1.20;;;;;;;9.92;53.29;90427.78;5004908;28;20037;-55
2024/01/03 10:02:45;;;;;;;1.33;0.70;;;;;;;9.74;53.78;90426.03;5009398;28;20057;-55
2024/01/03 10:05:21;;;;;;;2.13;0.35;;;;;;;9.76;55.05;90436.97;5019959;28;20033;-56
2024/01/03 10:07:46;;;;;;;1.08;0.40;;;;;;;10.01;56.12;90451.84;5028760;28;20060;-54
2024/01/03 10:10:14;;;;;;;0.95;0.35;;;;;;;9.75;54.62;90450.56;5016757;28;20034;-53
2024/01/03 10:12:39;;;;;;;3.05;0.60;;;;;;;9.44;55.42;90449.69;5018640;28;20060;-55
2024/01/03 10:15:15;;;;;;;2.22;0.40;;;;;;;9.28;56.04;90450.91;5021936;28;20033;-54
2024/01/03 10:17:45;;;;;;;1.38;0.43;;;;;;;9.19;57.03;90450.59;5022994;28;20068;-55
2024/01/03 10:20:30;;;;;;;1.02;0.40;;;;;;;9.12;55.80;90440.13;5015127;28;20033;-56
2024/01/03 10:23:16;;;;;;;2.83;0.40;;;;;;;9.25;56.27;90440.41;5026676;28;20037;-55
2024/01/03 10:25:43;;;;;;;1.60;0.40;;;;;;;9.02;55.31;90438.28;5011297;28;20518;-55
2024/01/03 10:28:11;;;;;;;0.60;0.30;;;;;;;8.92;55.89;90424.78;5021687;28;20037;-54
2024/01/03 10:30:36;;;;;;;1.63;0.30;;;;;;;8.83;55.54;90427.09;5016305;28;20046;-54
2024/01/03 10:33:06;;;;;;;0.60;0.20;;;;;;;8.98;54.52;90435.66;5019461;28;20041;-55
2024/01/03 10:35:35;;;;;;;1.35;0.17;;;;;;;8.95;53.61;90433.81;5026390;28;20103;-55
2024/01/03 10:38:01;;;;;;;1.15;0.25;;;;;;;9.05;53.76;90427.69;5016364;28;20057;-54
2024/01/03 10:40:29;;;;;;;0.65;0.20;;;;;;;9.18;54.62;90409.56;5021126;28;20061;-55
2024/01/03 10:42:54;;;;;;;0.90;0.30;;;;;;;9.24;53.81;90410.63;5019312;28;20497;-56
2024/01/03 10:45:20;;;;;;;0.65;0.30;;;;;;;9.28;52.60;90410.59;5024413;28;20026;-55
2024/01/03 10:47:46;;;;;;;0.82;0.32;;;;;;;9.19;53.02;90412.94;5021002;28;20124;-55
2024/01/03 10:50:12;;;;;;;0.82;0.40;;;;;;;9.35;55.33;90407.91;5014004;28;20033;-55
2024/01/03 10:52:37;;;;;;;0.73;0.20;;;;;;;9.55;51.97;90418.69;5018440;28;20022;-54
2024/01/03 10:55:05;;;;;;;0.35;0.10;;;;;;;9.68;52.20;90411.75;5003493;28;20030;-55
2024/01/03 10:57:34;;;;;;;0.88;0.35;;;;;;;9.94;53.64;90407.00;5020989;28;20025;-55
2024/01/03 11:00:15;;;;;;;1.80;0.50;;;;;;;10.17;53.29;90404.50;5013263;28;20103;-54
2024/01/03 11:02:54;;;;;;;1.60;0.55;;;;;;;10.17;52.68;90398.44;5026061;28;20387;-56
2024/01/03 11:05:36;;;;;;;1.02;0.40;;;;;;;9.95;52.52;90397.94;5029536;28;20474;-55
2024/01/03 11:08:06;;;;;;;1.23;0.30;;;;;;;9.71;50.88;90413.63;5014231;28;20453;-55
2024/01/03 11:10:54;;;;;;;0.43;0.20;;;;;;;9.60;50.90;90408.47;5013340;28;20122;-54
2024/01/03 11:13:30;;;;;;;3.50;0.60;;;;;;;9.34;50.57;90409.03;5017334;28;20550;-54
2024/01/03 11:15:58;;;;;;;0.35;0.20;;;;;;;9.29;48.61;90389.09;5022946;28;20025;-55
2024/01/03 11:18:42;;;;;;;0.63;0.22;;;;;;;9.10;48.12;90377.19;5028410;28;20120;-55
2024/01/03 11:21:30;;;;;;;3.53;0.30;;;;;;;8.96;48.17;90382.56;5017972;28;20029;-55
2024/01/03 11:23:57;;;;;;;0.95;0.20;;;;;;;8.90;48.68;90387.50;5022914;28;20033;-56
2024/01/03 11:26:56;;;;;;;0.80;0.20;;;;;;;9.00;49.27;90377.28;5027776;28;20025;-54
2024/01/03 11:29:55;;;;;;;0.80;0.25;;;;;;;9.10;48.83;90379.81;5018052;28;20033;-54
2024/01/03 11:32:35;;;;;;;0.80;0.20;;;;;;;9.11;47.65;90377.94;5012665;28;20046;-55
2024/01/03 11:35:04;;;;;;;2.53;0.65;;;;;;;9.04;47.13;90365.56;5029508;28;20037;-55
2024/01/03 11:37:29;;;;;;;1.33;0.32;;;;;;;8.99;47.84;90359.94;5022515;28;20037;-54
2024/01/03 11:39:56;;;;;;;1.60;0.30;;;;;;;8.97;47.54;90389.34;5024509;28;20079;-54